CFG6NH EDDF-LEPA
Flight info
| Callsign | CFG6NH |
|---|---|
| Flight time | N/A |
| Altitude | 37000 |
| Route | ANEKI2L/18 ANEKI Y163 HERBI Y164 MOPAN DCT LUTIX DCT BENOT DCT NEMOS DCT INCUS DCT BALSI DCT RETNO DCT TUPOX DCT MTG DCT DIVKO DCT VATIR DCT PIVUS N852 VERSO L129 LUNIK |
| Aircraft | A321/M-SDE3FGHIRWY/LB1 |
Departure
| Time | 2026-05-01 14:38 |
|---|---|
| Airport | Frankfurt Main Airport (EDDF) |
Arrival
| Time | N/A |
|---|---|
| Airport | Palma de Mallorca Airport (LEPA) |
| Time | Latitude | Longitude | Altitude | Speed | Heading |
|---|---|---|---|---|---|
| 2026-05-01 13:53 | 50.04579 | 8.56626 | 364 ft | 0 kts | 114° |
| 2026-05-01 13:54 | 50.04579 | 8.56625 | 364 ft | 0 kts | 115° |
| 2026-05-01 14:24 | 50.04582 | 8.56615 | 356 ft | 4 kts | 115° |
| 2026-05-01 14:24 | 50.04593 | 8.56577 | 363 ft | 4 kts | 116° |
| 2026-05-01 14:24 | 50.04606 | 8.56540 | 363 ft | 4 kts | 122° |
| 2026-05-01 14:25 | 50.04622 | 8.56509 | 360 ft | 4 kts | 150° |
| 2026-05-01 14:25 | 50.04638 | 8.56502 | 360 ft | 2 kts | 204° |
| 2026-05-01 14:25 | 50.04617 | 8.56487 | 361 ft | 4 kts | 204° |
| 2026-05-01 14:25 | 50.04592 | 8.56469 | 360 ft | 4 kts | 205° |
| 2026-05-01 14:26 | 50.04581 | 8.56461 | 356 ft | 0 kts | 205° |
| 2026-05-01 14:28 | 50.04580 | 8.56461 | 356 ft | 1 kts | 205° |
| 2026-05-01 14:28 | 50.04537 | 8.56423 | 357 ft | 14 kts | 221° |
| 2026-05-01 14:29 | 50.04482 | 8.56242 | 363 ft | 22 kts | 248° |
| 2026-05-01 14:29 | 50.04423 | 8.56041 | 358 ft | 17 kts | 219° |
| 2026-05-01 14:30 | 50.04233 | 8.55920 | 356 ft | 18 kts | 249° |
| 2026-05-01 14:30 | 50.04183 | 8.55714 | 357 ft | 21 kts | 250° |
| 2026-05-01 14:30 | 50.04133 | 8.55508 | 357 ft | 20 kts | 249° |
| 2026-05-01 14:31 | 50.04049 | 8.55146 | 360 ft | 16 kts | 249° |
| 2026-05-01 14:31 | 50.04004 | 8.54957 | 359 ft | 22 kts | 249° |
| 2026-05-01 14:31 | 50.03950 | 8.54733 | 358 ft | 22 kts | 249° |
| 2026-05-01 14:31 | 50.03896 | 8.54512 | 350 ft | 22 kts | 249° |
| 2026-05-01 14:32 | 50.03829 | 8.54305 | 351 ft | 21 kts | 235° |
| 2026-05-01 14:32 | 50.03769 | 8.54106 | 350 ft | 20 kts | 249° |
| 2026-05-01 14:32 | 50.03724 | 8.53909 | 349 ft | 19 kts | 250° |
| 2026-05-01 14:32 | 50.03679 | 8.53722 | 347 ft | 18 kts | 249° |
| 2026-05-01 14:33 | 50.03636 | 8.53545 | 337 ft | 17 kts | 249° |
| 2026-05-01 14:33 | 50.03594 | 8.53376 | 337 ft | 17 kts | 250° |
| 2026-05-01 14:33 | 50.03548 | 8.53183 | 336 ft | 19 kts | 250° |
| 2026-05-01 14:33 | 50.03504 | 8.52995 | 333 ft | 18 kts | 250° |
| 2026-05-01 14:34 | 50.03456 | 8.52822 | 332 ft | 17 kts | 248° |
| 2026-05-01 14:34 | 50.03434 | 8.52735 | 332 ft | 0 kts | 249° |
| 2026-05-01 14:34 | 50.03428 | 8.52710 | 332 ft | 6 kts | 250° |
| 2026-05-01 14:35 | 50.03402 | 8.52615 | 332 ft | 10 kts | 228° |
| 2026-05-01 14:35 | 50.03336 | 8.52594 | 335 ft | 11 kts | 179° |
| 2026-05-01 14:35 | 50.03258 | 8.52595 | 332 ft | 11 kts | 180° |
| 2026-05-01 14:35 | 50.03185 | 8.52595 | 335 ft | 10 kts | 180° |
| 2026-05-01 14:36 | 50.03119 | 8.52596 | 335 ft | 9 kts | 179° |
| 2026-05-01 14:36 | 50.03059 | 8.52597 | 335 ft | 8 kts | 179° |
| 2026-05-01 14:36 | 50.03007 | 8.52598 | 332 ft | 7 kts | 180° |
| 2026-05-01 14:36 | 50.02961 | 8.52597 | 335 ft | 6 kts | 180° |
| 2026-05-01 14:37 | 50.02923 | 8.52597 | 333 ft | 5 kts | 180° |
| 2026-05-01 14:37 | 50.02884 | 8.52598 | 333 ft | 10 kts | 179° |
| 2026-05-01 14:37 | 50.02587 | 8.52602 | 335 ft | 77 kts | 179° |
| 2026-05-01 14:37 | 50.01849 | 8.52609 | 334 ft | 133 kts | 180° |
| 2026-05-01 14:38 | 50.00773 | 8.52616 | 335 ft | 174 kts | 176° |
| 2026-05-01 14:38 | 49.99522 | 8.52641 | 744 ft | 183 kts | 173° |
| 2026-05-01 14:38 | 49.98250 | 8.52728 | 1457 ft | 182 kts | 173° |
| 2026-05-01 14:38 | 49.96949 | 8.52833 | 1830 ft | 196 kts | 174° |
| 2026-05-01 14:39 | 49.95520 | 8.52953 | 1973 ft | 215 kts | 173° |
| 2026-05-01 14:39 | 49.94009 | 8.53069 | 2404 ft | 218 kts | 174° |
| 2026-05-01 14:39 | 49.92484 | 8.53178 | 2908 ft | 223 kts | 174° |
| 2026-05-01 14:39 | 49.90924 | 8.53288 | 3568 ft | 225 kts | 174° |
| 2026-05-01 14:40 | 49.89361 | 8.53396 | 4228 ft | 225 kts | 175° |
| 2026-05-01 14:40 | 49.87802 | 8.53501 | 4887 ft | 224 kts | 176° |
| 2026-05-01 14:40 | 49.86237 | 8.53606 | 5481 ft | 226 kts | 176° |
| 2026-05-01 14:40 | 49.84681 | 8.53708 | 6029 ft | 228 kts | 176° |
| 2026-05-01 14:41 | 49.83085 | 8.53814 | 6560 ft | 230 kts | 176° |
| 2026-05-01 14:41 | 49.81470 | 8.53924 | 7100 ft | 234 kts | 176° |
| 2026-05-01 14:41 | 49.79839 | 8.54037 | 7760 ft | 235 kts | 177° |
| 2026-05-01 14:41 | 49.78192 | 8.54135 | 8396 ft | 238 kts | 180° |
| 2026-05-01 14:42 | 49.76490 | 8.53950 | 8763 ft | 256 kts | 184° |
| 2026-05-01 14:42 | 49.74652 | 8.53709 | 9094 ft | 272 kts | 184° |
| 2026-05-01 14:42 | 49.72744 | 8.53452 | 9683 ft | 277 kts | 184° |
| 2026-05-01 14:42 | 49.70816 | 8.53189 | 10319 ft | 280 kts | 184° |
| 2026-05-01 14:43 | 49.68832 | 8.52920 | 10613 ft | 296 kts | 184° |
| 2026-05-01 14:43 | 49.66707 | 8.52638 | 10746 ft | 318 kts | 184° |
| 2026-05-01 14:43 | 49.64434 | 8.52339 | 10863 ft | 338 kts | 184° |
| 2026-05-01 14:43 | 49.62030 | 8.52020 | 11108 ft | 352 kts | 184° |
| 2026-05-01 14:44 | 49.59572 | 8.51694 | 11614 ft | 357 kts | 184° |
| 2026-05-01 14:44 | 49.54561 | 8.51029 | 12757 ft | 365 kts | 183° |
| 2026-05-01 14:44 | 49.52014 | 8.50694 | 13331 ft | 369 kts | 183° |
| 2026-05-01 14:45 | 49.49442 | 8.50357 | 13905 ft | 373 kts | 183° |
| 2026-05-01 14:45 | 49.44255 | 8.49673 | 14938 ft | 379 kts | 183° |
| 2026-05-01 14:45 | 49.41617 | 8.49328 | 15457 ft | 382 kts | 183° |
| 2026-05-01 14:46 | 49.38965 | 8.48981 | 15957 ft | 385 kts | 183° |
| 2026-05-01 14:46 | 49.33592 | 8.48286 | 16953 ft | 390 kts | 183° |
| 2026-05-01 14:46 | 49.30878 | 8.47934 | 17446 ft | 393 kts | 183° |
| 2026-05-01 14:47 | 49.28146 | 8.47578 | 17920 ft | 395 kts | 184° |
| 2026-05-01 14:47 | 49.25397 | 8.47220 | 18406 ft | 398 kts | 183° |
| 2026-05-01 14:47 | 49.22626 | 8.46860 | 18849 ft | 401 kts | 183° |
| 2026-05-01 14:48 | 49.17029 | 8.46131 | 19656 ft | 406 kts | 183° |
| 2026-05-01 14:48 | 49.14209 | 8.45763 | 20046 ft | 409 kts | 183° |
| 2026-05-01 14:48 | 49.08497 | 8.45022 | 20797 ft | 415 kts | 184° |
| 2026-05-01 14:49 | 49.02770 | 8.43509 | 21522 ft | 422 kts | 192° |
| 2026-05-01 14:49 | 48.97007 | 8.41494 | 22265 ft | 428 kts | 191° |
| 2026-05-01 14:50 | 48.93142 | 8.40150 | 22767 ft | 432 kts | 191° |
| 2026-05-01 14:50 | 48.85271 | 8.37428 | 23721 ft | 439 kts | 192° |
| 2026-05-01 14:51 | 48.82282 | 8.36393 | 24025 ft | 442 kts | 192° |
| 2026-05-01 14:51 | 48.76249 | 8.34283 | 24637 ft | 447 kts | 192° |
| 2026-05-01 14:52 | 48.70175 | 8.32061 | 25255 ft | 451 kts | 193° |
| 2026-05-01 14:52 | 48.67115 | 8.30924 | 25559 ft | 453 kts | 193° |
| 2026-05-01 14:52 | 48.60955 | 8.28657 | 26140 ft | 458 kts | 193° |
| 2026-05-01 14:53 | 48.57851 | 8.27530 | 26407 ft | 460 kts | 193° |
| 2026-05-01 14:53 | 48.54733 | 8.26403 | 26686 ft | 462 kts | 193° |
| 2026-05-01 14:53 | 48.51596 | 8.25269 | 26968 ft | 464 kts | 193° |
| 2026-05-01 14:53 | 48.48455 | 8.24133 | 27243 ft | 466 kts | 193° |
| 2026-05-01 14:54 | 48.45293 | 8.22986 | 27512 ft | 468 kts | 193° |
| 2026-05-01 14:54 | 48.42123 | 8.21827 | 27780 ft | 470 kts | 193° |
| 2026-05-01 14:54 | 48.38938 | 8.20658 | 28066 ft | 472 kts | 193° |
| 2026-05-01 14:54 | 48.35747 | 8.19486 | 28329 ft | 474 kts | 193° |
| 2026-05-01 14:55 | 48.32542 | 8.18316 | 28664 ft | 473 kts | 193° |
| 2026-05-01 14:55 | 48.29338 | 8.17155 | 29022 ft | 473 kts | 193° |
| 2026-05-01 14:55 | 48.26153 | 8.15975 | 29398 ft | 472 kts | 196° |
| 2026-05-01 14:55 | 48.23111 | 8.14316 | 29766 ft | 471 kts | 205° |
| 2026-05-01 14:56 | 48.20178 | 8.12150 | 30130 ft | 470 kts | 206° |
| 2026-05-01 14:56 | 48.17256 | 8.09967 | 30465 ft | 469 kts | 206° |
| 2026-05-01 14:56 | 48.14333 | 8.07803 | 30783 ft | 468 kts | 206° |
| 2026-05-01 14:56 | 48.11415 | 8.05653 | 31087 ft | 467 kts | 206° |
| 2026-05-01 14:57 | 48.08501 | 8.03509 | 31429 ft | 465 kts | 206° |
| 2026-05-01 14:57 | 48.02714 | 7.99259 | 32108 ft | 462 kts | 206° |
| 2026-05-01 14:57 | 47.99835 | 7.97145 | 32454 ft | 460 kts | 206° |
| 2026-05-01 14:58 | 47.96963 | 7.95038 | 32794 ft | 458 kts | 206° |
| 2026-05-01 14:58 | 47.94107 | 7.92944 | 33134 ft | 457 kts | 207° |
| 2026-05-01 14:58 | 47.91259 | 7.90859 | 33470 ft | 455 kts | 207° |
| 2026-05-01 14:58 | 47.88422 | 7.88789 | 33803 ft | 453 kts | 206° |
| 2026-05-01 14:59 | 47.85591 | 7.86729 | 34129 ft | 452 kts | 206° |
| 2026-05-01 14:59 | 47.82771 | 7.84679 | 34413 ft | 451 kts | 206° |
| 2026-05-01 14:59 | 47.79955 | 7.82627 | 34663 ft | 450 kts | 207° |
| 2026-05-01 14:59 | 47.77141 | 7.80577 | 34906 ft | 449 kts | 206° |
| 2026-05-01 15:00 | 47.71533 | 7.76497 | 35353 ft | 448 kts | 206° |
| 2026-05-01 15:00 | 47.68732 | 7.74465 | 35586 ft | 448 kts | 206° |
| 2026-05-01 15:00 | 47.65941 | 7.72444 | 35806 ft | 447 kts | 206° |
| 2026-05-01 15:01 | 47.63138 | 7.70419 | 36017 ft | 447 kts | 206° |
| 2026-05-01 15:01 | 47.60343 | 7.68405 | 36225 ft | 447 kts | 206° |
| 2026-05-01 15:01 | 47.57579 | 7.66418 | 36439 ft | 446 kts | 206° |
| 2026-05-01 15:01 | 47.54793 | 7.64414 | 36641 ft | 446 kts | 206° |
| 2026-05-01 15:02 | 47.52003 | 7.62405 | 36837 ft | 445 kts | 206° |
| 2026-05-01 15:02 | 47.46437 | 7.58397 | 37205 ft | 445 kts | 206° |
| 2026-05-01 15:03 | 47.40861 | 7.54402 | 37256 ft | 445 kts | 206° |
| 2026-05-01 15:03 | 47.35295 | 7.50423 | 37247 ft | 444 kts | 206° |
| 2026-05-01 15:04 | 47.29727 | 7.46446 | 37244 ft | 444 kts | 206° |
| 2026-05-01 15:04 | 47.24166 | 7.42494 | 37251 ft | 444 kts | 206° |
| 2026-05-01 15:05 | 47.18654 | 7.38399 | 37253 ft | 443 kts | 213° |
| 2026-05-01 15:05 | 47.14029 | 7.32498 | 37245 ft | 441 kts | 231° |
| 2026-05-01 15:06 | 47.10236 | 7.25482 | 37258 ft | 442 kts | 232° |
| 2026-05-01 15:06 | 47.06404 | 7.18433 | 37271 ft | 442 kts | 231° |
| 2026-05-01 15:07 | 47.02569 | 7.11415 | 37300 ft | 441 kts | 231° |
| 2026-05-01 15:07 | 46.98733 | 7.04402 | 37289 ft | 440 kts | 231° |
| 2026-05-01 15:08 | 46.94903 | 6.97413 | 37290 ft | 440 kts | 231° |
| 2026-05-01 15:08 | 46.90789 | 6.90807 | 37292 ft | 440 kts | 219° |
| 2026-05-01 15:09 | 46.86542 | 6.86757 | 37276 ft | 440 kts | 210° |
| 2026-05-01 15:09 | 46.81217 | 6.82342 | 37288 ft | 440 kts | 210° |
| 2026-05-01 15:10 | 46.75887 | 6.77930 | 37286 ft | 440 kts | 210° |
| 2026-05-01 15:10 | 46.67907 | 6.71320 | 37283 ft | 440 kts | 210° |
| 2026-05-01 15:11 | 46.59913 | 6.64725 | 37275 ft | 440 kts | 211° |
| 2026-05-01 15:12 | 46.54583 | 6.60343 | 37271 ft | 440 kts | 211° |
| 2026-05-01 15:12 | 46.46615 | 6.53801 | 37273 ft | 440 kts | 211° |
| 2026-05-01 15:14 | 46.33269 | 6.42899 | 37264 ft | 441 kts | 211° |
| 2026-05-01 15:14 | 46.25247 | 6.36376 | 37259 ft | 441 kts | 211° |
| 2026-05-01 15:15 | 46.14538 | 6.27716 | 37257 ft | 440 kts | 211° |
| 2026-05-01 15:16 | 46.03884 | 6.19120 | 37252 ft | 440 kts | 211° |
| 2026-05-01 15:18 | 45.90501 | 6.08396 | 37249 ft | 441 kts | 212° |
| 2026-05-01 15:19 | 45.78875 | 6.02911 | 37250 ft | 447 kts | 191° |
| 2026-05-01 15:19 | 45.69640 | 6.00890 | 37222 ft | 448 kts | 191° |
| 2026-05-01 15:20 | 45.60394 | 5.98855 | 37216 ft | 448 kts | 191° |
| 2026-05-01 15:21 | 45.54231 | 5.97500 | 37224 ft | 448 kts | 191° |
| 2026-05-01 15:21 | 45.48102 | 5.96163 | 37230 ft | 448 kts | 191° |
| 2026-05-01 15:22 | 45.38957 | 5.93498 | 37244 ft | 447 kts | 196° |
| 2026-05-01 15:22 | 45.32907 | 5.91459 | 37250 ft | 447 kts | 195° |
| 2026-05-01 15:23 | 45.26834 | 5.89514 | 37257 ft | 447 kts | 195° |
| 2026-05-01 15:23 | 45.20752 | 5.87636 | 37263 ft | 447 kts | 195° |
| 2026-05-01 15:24 | 45.14669 | 5.85774 | 37262 ft | 447 kts | 195° |
| 2026-05-01 15:24 | 45.08586 | 5.83894 | 37263 ft | 447 kts | 195° |
| 2026-05-01 15:25 | 45.02509 | 5.82013 | 37266 ft | 447 kts | 195° |
| 2026-05-01 15:25 | 44.96418 | 5.80137 | 37271 ft | 448 kts | 195° |
| 2026-05-01 15:26 | 44.90329 | 5.78268 | 37272 ft | 448 kts | 195° |
| 2026-05-01 15:26 | 44.84276 | 5.76403 | 37278 ft | 448 kts | 194° |
| 2026-05-01 15:27 | 44.78183 | 5.74538 | 37284 ft | 448 kts | 194° |
| 2026-05-01 15:28 | 44.69036 | 5.71760 | 37286 ft | 448 kts | 194° |
| 2026-05-01 15:28 | 44.62942 | 5.69904 | 37287 ft | 448 kts | 194° |
| 2026-05-01 15:29 | 44.53792 | 5.67110 | 37288 ft | 448 kts | 194° |
| 2026-05-01 15:30 | 44.41603 | 5.63439 | 37292 ft | 448 kts | 194° |
| 2026-05-01 15:31 | 44.24118 | 5.54734 | 37291 ft | 445 kts | 203° |
| 2026-05-01 15:32 | 44.12626 | 5.48475 | 37293 ft | 445 kts | 203° |
| 2026-05-01 15:34 | 43.95336 | 5.39093 | 37289 ft | 445 kts | 203° |